sensor_id;sensor_type;location;lat;lon;timestamp;temperature;humidity
7700;DHT22;3892;47.794;19.126;2022-09-17T00:00:37;22.00;48.50
7700;DHT22;3892;47.794;19.126;2022-09-17T00:03:04;22.00;48.40
7700;DHT22;3892;47.794;19.126;2022-09-17T00:05:31;22.00;48.40
7700;DHT22;3892;47.794;19.126;2022-09-17T00:07:59;22.10;49.00
7700;DHT22;3892;47.794;19.126;2022-09-17T00:10:26;22.10;48.30
7700;DHT22;3892;47.794;19.126;2022-09-17T00:12:53;22.10;48.30
7700;DHT22;3892;47.794;19.126;2022-09-17T00:15:20;22.10;48.90
7700;DHT22;3892;47.794;19.126;2022-09-17T00:17:52;22.00;48.20
7700;DHT22;3892;47.794;19.126;2022-09-17T00:20:19;22.00;48.30
7700;DHT22;3892;47.794;19.126;2022-09-17T00:22:46;22.00;48.40
7700;DHT22;3892;47.794;19.126;2022-09-17T00:25:14;22.00;49.00
7700;DHT22;3892;47.794;19.126;2022-09-17T00:27:41;22.00;48.50
7700;DHT22;3892;47.794;19.126;2022-09-17T00:30:10;22.00;48.50
7700;DHT22;3892;47.794;19.126;2022-09-17T00:32:37;22.00;48.60
7700;DHT22;3892;47.794;19.126;2022-09-17T00:35:05;21.90;48.40
7700;DHT22;3892;47.794;19.126;2022-09-17T00:37:32;21.80;48.60
7700;DHT22;3892;47.794;19.126;2022-09-17T00:39:59;21.80;48.50
7700;DHT22;3892;47.794;19.126;2022-09-17T00:42:27;21.80;48.40
7700;DHT22;3892;47.794;19.126;2022-09-17T00:44:55;21.90;48.60
7700;DHT22;3892;47.794;19.126;2022-09-17T00:47:26;22.00;48.60
7700;DHT22;3892;47.794;19.126;2022-09-17T00:49:56;22.00;48.50
7700;DHT22;3892;47.794;19.126;2022-09-17T00:52:28;22.00;49.10
7700;DHT22;3892;47.794;19.126;2022-09-17T00:55:02;22.00;48.50
7700;DHT22;3892;47.794;19.126;2022-09-17T00:57:31;22.10;48.50
7700;DHT22;3892;47.794;19.126;2022-09-17T00:59:58;22.00;48.40
7700;DHT22;3892;47.794;19.126;2022-09-17T01:02:25;21.90;48.20
7700;DHT22;3892;47.794;19.126;2022-09-17T01:04:53;21.80;48.30
7700;DHT22;3892;47.794;19.126;2022-09-17T01:07:34;21.80;48.30
7700;DHT22;3892;47.794;19.126;2022-09-17T01:10:17;21.80;48.40
7700;DHT22;3892;47.794;19.126;2022-09-17T01:12:58;21.80;48.50
7700;DHT22;3892;47.794;19.126;2022-09-17T01:15:34;21.70;48.40
7700;DHT22;3892;47.794;19.126;2022-09-17T01:18:13;21.70;48.50
7700;DHT22;3892;47.794;19.126;2022-09-17T01:30:14;21.60;48.70
7700;DHT22;3892;47.794;19.126;2022-09-17T01:32:45;21.60;48.50
7700;DHT22;3892;47.794;19.126;2022-09-17T01:35:21;21.60;48.50
7700;DHT22;3892;47.794;19.126;2022-09-17T01:37:56;21.60;48.50
7700;DHT22;3892;47.794;19.126;2022-09-17T01:40:27;21.60;48.60
7700;DHT22;3892;47.794;19.126;2022-09-17T01:43:00;21.70;48.60
7700;DHT22;3892;47.794;19.126;2022-09-17T01:45:35;21.70;48.60
7700;DHT22;3892;47.794;19.126;2022-09-17T01:48:08;21.70;48.60
7700;DHT22;3892;47.794;19.126;2022-09-17T01:50:41;21.60;48.50
7700;DHT22;3892;47.794;19.126;2022-09-17T01:53:11;21.70;48.50
7700;DHT22;3892;47.794;19.126;2022-09-17T01:55:40;21.60;48.20
7700;DHT22;3892;47.794;19.126;2022-09-17T01:58:13;21.60;48.20
7700;DHT22;3892;47.794;19.126;2022-09-17T02:00:45;21.60;48.30
7700;DHT22;3892;47.794;19.126;2022-09-17T02:03:19;21.50;48.20
7700;DHT22;3892;47.794;19.126;2022-09-17T02:05:49;21.50;48.30
7700;DHT22;3892;47.794;19.126;2022-09-17T02:08:20;21.50;48.20
7700;DHT22;3892;47.794;19.126;2022-09-17T02:10:51;21.40;48.60
7700;DHT22;3892;47.794;19.126;2022-09-17T02:13:23;21.20;47.50
7700;DHT22;3892;47.794;19.126;2022-09-17T02:15:54;21.20;47.80
7700;DHT22;3892;47.794;19.126;2022-09-17T02:18:27;21.20;47.80
7700;DHT22;3892;47.794;19.126;2022-09-17T02:21:02;21.10;47.60
7700;DHT22;3892;47.794;19.126;2022-09-17T02:23:34;21.10;47.50
7700;DHT22;3892;47.794;19.126;2022-09-17T02:26:06;21.20;47.50
7700;DHT22;3892;47.794;19.126;2022-09-17T02:28:40;21.20;47.40
7700;DHT22;3892;47.794;19.126;2022-09-17T02:31:08;21.20;47.20
7700;DHT22;3892;47.794;19.126;2022-09-17T02:33:39;21.30;47.20
7700;DHT22;3892;47.794;19.126;2022-09-17T02:36:07;21.20;47.40
7700;DHT22;3892;47.794;19.126;2022-09-17T02:38:34;21.10;46.50
7700;DHT22;3892;47.794;19.126;2022-09-17T02:41:05;21.20;46.60
7700;DHT22;3892;47.794;19.126;2022-09-17T02:43:43;21.10;46.20
7700;DHT22;3892;47.794;19.126;2022-09-17T02:46:29;21.10;47.00
7700;DHT22;3892;47.794;19.126;2022-09-17T02:49:28;21.20;46.60
7700;DHT22;3892;47.794;19.126;2022-09-17T02:52:05;21.10;46.10
7700;DHT22;3892;47.794;19.126;2022-09-17T02:54:39;21.10;46.00
7700;DHT22;3892;47.794;19.126;2022-09-17T02:57:14;21.10;46.00
7700;DHT22;3892;47.794;19.126;2022-09-17T02:59:47;21.10;45.80
7700;DHT22;3892;47.794;19.126;2022-09-17T03:02:20;21.00;45.70
7700;DHT22;3892;47.794;19.126;2022-09-17T03:04:50;21.00;45.90
7700;DHT22;3892;47.794;19.126;2022-09-17T03:07:19;20.90;45.90
7700;DHT22;3892;47.794;19.126;2022-09-17T03:09:46;21.10;46.10
7700;DHT22;3892;47.794;19.126;2022-09-17T03:12:13;21.10;46.00
7700;DHT22;3892;47.794;19.126;2022-09-17T03:14:40;21.10;45.80
7700;DHT22;3892;47.794;19.126;2022-09-17T03:17:07;21.10;45.80
7700;DHT22;3892;47.794;19.126;2022-09-17T03:19:34;21.10;45.50
7700;DHT22;3892;47.794;19.126;2022-09-17T03:22:02;21.00;45.60
7700;DHT22;3892;47.794;19.126;2022-09-17T03:24:29;21.10;45.80
7700;DHT22;3892;47.794;19.126;2022-09-17T03:26:56;21.00;45.50
7700;DHT22;3892;47.794;19.126;2022-09-17T03:29:23;21.10;45.50
7700;DHT22;3892;47.794;19.126;2022-09-17T03:31:50;21.00;45.40
7700;DHT22;3892;47.794;19.126;2022-09-17T03:34:17;20.90;45.30
7700;DHT22;3892;47.794;19.126;2022-09-17T03:36:44;20.80;45.10
7700;DHT22;3892;47.794;19.126;2022-09-17T03:39:12;20.90;45.90
7700;DHT22;3892;47.794;19.126;2022-09-17T03:41:39;20.90;45.30
7700;DHT22;3892;47.794;19.126;2022-09-17T03:44:06;20.90;45.20
7700;DHT22;3892;47.794;19.126;2022-09-17T03:46:35;20.80;45.00
7700;DHT22;3892;47.794;19.126;2022-09-17T03:49:02;20.80;45.10
7700;DHT22;3892;47.794;19.126;2022-09-17T03:51:29;20.80;45.10
7700;DHT22;3892;47.794;19.126;2022-09-17T03:53:56;20.80;45.20
7700;DHT22;3892;47.794;19.126;2022-09-17T03:56:24;20.80;45.20
7700;DHT22;3892;47.794;19.126;2022-09-17T03:58:56;20.80;45.20
7700;DHT22;3892;47.794;19.126;2022-09-17T04:01:23;20.80;45.30
7700;DHT22;3892;47.794;19.126;2022-09-17T04:03:50;20.80;45.20
7700;DHT22;3892;47.794;19.126;2022-09-17T04:06:17;20.80;45.30
7700;DHT22;3892;47.794;19.126;2022-09-17T04:08:44;20.70;45.20
7700;DHT22;3892;47.794;19.126;2022-09-17T04:11:12;20.70;45.20
7700;DHT22;3892;47.794;19.126;2022-09-17T04:13:40;20.70;45.20
7700;DHT22;3892;47.794;19.126;2022-09-17T04:16:07;20.60;45.30
7700;DHT22;3892;47.794;19.126;2022-09-17T04:18:34;20.60;45.30
7700;DHT22;3892;47.794;19.126;2022-09-17T04:21:01;20.60;45.30
7700;DHT22;3892;47.794;19.126;2022-09-17T04:23:28;20.60;45.30
7700;DHT22;3892;47.794;19.126;2022-09-17T04:25:55;20.50;45.20
7700;DHT22;3892;47.794;19.126;2022-09-17T04:28:22;20.50;45.80
7700;DHT22;3892;47.794;19.126;2022-09-17T04:30:50;20.50;45.50
7700;DHT22;3892;47.794;19.126;2022-09-17T04:33:17;20.50;45.40
7700;DHT22;3892;47.794;19.126;2022-09-17T04:35:44;20.40;45.50
7700;DHT22;3892;47.794;19.126;2022-09-17T04:38:11;20.40;45.50
7700;DHT22;3892;47.794;19.126;2022-09-17T04:40:43;20.40;45.50
7700;DHT22;3892;47.794;19.126;2022-09-17T04:43:11;20.40;45.50
7700;DHT22;3892;47.794;19.126;2022-09-17T04:45:37;20.40;45.60
7700;DHT22;3892;47.794;19.126;2022-09-17T04:48:06;20.50;45.60
7700;DHT22;3892;47.794;19.126;2022-09-17T04:50:33;20.50;45.50
7700;DHT22;3892;47.794;19.126;2022-09-17T04:53:00;20.50;45.50
7700;DHT22;3892;47.794;19.126;2022-09-17T04:55:27;20.50;46.10
7700;DHT22;3892;47.794;19.126;2022-09-17T04:57:56;20.50;48.80
7700;DHT22;3892;47.794;19.126;2022-09-17T05:00:23;20.50;51.60
7700;DHT22;3892;47.794;19.126;2022-09-17T05:02:51;20.50;51.40
7700;DHT22;3892;47.794;19.126;2022-09-17T05:05:21;20.50;51.20
7700;DHT22;3892;47.794;19.126;2022-09-17T05:07:48;20.50;51.20
7700;DHT22;3892;47.794;19.126;2022-09-17T05:10:16;20.50;51.30
7700;DHT22;3892;47.794;19.126;2022-09-17T05:12:47;20.50;51.40
7700;DHT22;3892;47.794;19.126;2022-09-17T05:15:14;20.50;51.60
7700;DHT22;3892;47.794;19.126;2022-09-17T05:17:41;20.50;51.50
7700;DHT22;3892;47.794;19.126;2022-09-17T05:20:08;20.60;51.50
7700;DHT22;3892;47.794;19.126;2022-09-17T05:22:41;20.50;51.40
7700;DHT22;3892;47.794;19.126;2022-09-17T05:25:08;20.50;51.40
7700;DHT22;3892;47.794;19.126;2022-09-17T05:27:35;20.40;51.40
7700;DHT22;3892;47.794;19.126;2022-09-17T05:30:03;20.40;51.40
7700;DHT22;3892;47.794;19.126;2022-09-17T05:32:30;20.40;51.40
7700;DHT22;3892;47.794;19.126;2022-09-17T05:34:57;20.40;51.30
7700;DHT22;3892;47.794;19.126;2022-09-17T05:37:23;20.50;51.40
7700;DHT22;3892;47.794;19.126;2022-09-17T05:39:52;20.40;51.40
7700;DHT22;3892;47.794;19.126;2022-09-17T05:42:19;20.30;51.40
7700;DHT22;3892;47.794;19.126;2022-09-17T05:44:45;20.30;51.30
7700;DHT22;3892;47.794;19.126;2022-09-17T05:47:12;20.30;51.30
7700;DHT22;3892;47.794;19.126;2022-09-17T05:49:40;20.40;51.30
7700;DHT22;3892;47.794;19.126;2022-09-17T05:52:06;20.40;51.30
7700;DHT22;3892;47.794;19.126;2022-09-17T05:54:33;20.30;51.10
7700;DHT22;3892;47.794;19.126;2022-09-17T05:57:02;20.30;51.20
7700;DHT22;3892;47.794;19.126;2022-09-17T05:59:29;20.40;52.10
7700;DHT22;3892;47.794;19.126;2022-09-17T06:01:56;20.30;51.20
7700;DHT22;3892;47.794;19.126;2022-09-17T06:04:23;20.40;51.10
7700;DHT22;3892;47.794;19.126;2022-09-17T06:06:51;20.40;51.20
7700;DHT22;3892;47.794;19.126;2022-09-17T06:09:18;20.40;50.30
7700;DHT22;3892;47.794;19.126;2022-09-17T06:11:45;20.40;51.40
7700;DHT22;3892;47.794;19.126;2022-09-17T06:14:13;20.40;51.90
7700;DHT22;3892;47.794;19.126;2022-09-17T06:16:41;20.40;51.10
7700;DHT22;3892;47.794;19.126;2022-09-17T06:19:08;20.40;51.20
7700;DHT22;3892;47.794;19.126;2022-09-17T06:21:34;20.40;51.30
7700;DHT22;3892;47.794;19.126;2022-09-17T06:24:02;20.40;51.20
7700;DHT22;3892;47.794;19.126;2022-09-17T06:26:28;20.40;51.20
7700;DHT22;3892;47.794;19.126;2022-09-17T06:28:58;20.40;51.10
7700;DHT22;3892;47.794;19.126;2022-09-17T06:31:26;20.40;51.00
7700;DHT22;3892;47.794;19.126;2022-09-17T06:33:55;20.40;49.40
7700;DHT22;3892;47.794;19.126;2022-09-17T06:36:22;20.40;46.00
7700;DHT22;3892;47.794;19.126;2022-09-17T06:38:49;20.40;48.80
7700;DHT22;3892;47.794;19.126;2022-09-17T06:41:16;20.40;51.20
7700;DHT22;3892;47.794;19.126;2022-09-17T06:43:43;20.40;51.30
7700;DHT22;3892;47.794;19.126;2022-09-17T06:46:10;20.50;51.20
7700;DHT22;3892;47.794;19.126;2022-09-17T06:48:39;20.50;51.20
7700;DHT22;3892;47.794;19.126;2022-09-17T06:51:08;20.50;51.10
7700;DHT22;3892;47.794;19.126;2022-09-17T06:53:36;20.50;51.10
7700;DHT22;3892;47.794;19.126;2022-09-17T06:56:04;20.50;51.30
7700;DHT22;3892;47.794;19.126;2022-09-17T06:58:31;20.60;51.20
7700;DHT22;3892;47.794;19.126;2022-09-17T07:00:58;20.60;51.00
7700;DHT22;3892;47.794;19.126;2022-09-17T07:03:26;20.50;50.90
7700;DHT22;3892;47.794;19.126;2022-09-17T07:05:54;20.50;50.80
7700;DHT22;3892;47.794;19.126;2022-09-17T07:08:21;20.50;50.70
7700;DHT22;3892;47.794;19.126;2022-09-17T07:10:48;20.50;51.00
7700;DHT22;3892;47.794;19.126;2022-09-17T07:13:15;20.50;50.90
7700;DHT22;3892;47.794;19.126;2022-09-17T07:15:42;20.50;51.60
7700;DHT22;3892;47.794;19.126;2022-09-17T07:18:10;20.60;51.10
7700;DHT22;3892;47.794;19.126;2022-09-17T07:20:37;20.60;50.30
7700;DHT22;3892;47.794;19.126;2022-09-17T07:23:06;20.60;49.90
7700;DHT22;3892;47.794;19.126;2022-09-17T07:25:32;20.60;50.40
7700;DHT22;3892;47.794;19.126;2022-09-17T07:28:01;20.60;50.50
7700;DHT22;3892;47.794;19.126;2022-09-17T07:30:28;20.60;50.70
7700;DHT22;3892;47.794;19.126;2022-09-17T07:32:55;20.60;50.70
7700;DHT22;3892;47.794;19.126;2022-09-17T07:35:26;20.70;53.30
7700;DHT22;3892;47.794;19.126;2022-09-17T07:37:53;20.70;50.90
7700;DHT22;3892;47.794;19.126;2022-09-17T07:40:21;20.70;50.30
7700;DHT22;3892;47.794;19.126;2022-09-17T07:42:48;20.70;50.70
7700;DHT22;3892;47.794;19.126;2022-09-17T07:45:16;20.80;50.90
7700;DHT22;3892;47.794;19.126;2022-09-17T07:47:42;20.80;50.30
7700;DHT22;3892;47.794;19.126;2022-09-17T07:50:10;20.90;50.50
7700;DHT22;3892;47.794;19.126;2022-09-17T07:52:36;20.90;50.40
7700;DHT22;3892;47.794;19.126;2022-09-17T07:55:04;20.90;50.20
7700;DHT22;3892;47.794;19.126;2022-09-17T07:57:33;20.90;50.40
7700;DHT22;3892;47.794;19.126;2022-09-17T08:00:00;21.00;50.50
7700;DHT22;3892;47.794;19.126;2022-09-17T08:02:37;20.90;50.40
7700;DHT22;3892;47.794;19.126;2022-09-17T08:05:04;20.90;50.50
7700;DHT22;3892;47.794;19.126;2022-09-17T08:07:31;20.90;50.60
7700;DHT22;3892;47.794;19.126;2022-09-17T08:09:58;20.80;50.50
7700;DHT22;3892;47.794;19.126;2022-09-17T08:12:26;20.90;50.80
7700;DHT22;3892;47.794;19.126;2022-09-17T08:14:54;20.70;50.70
7700;DHT22;3892;47.794;19.126;2022-09-17T08:17:21;20.90;51.00
7700;DHT22;3892;47.794;19.126;2022-09-17T08:19:48;20.90;50.80
7700;DHT22;3892;47.794;19.126;2022-09-17T08:22:15;20.90;50.90
7700;DHT22;3892;47.794;19.126;2022-09-17T08:24:42;20.80;50.90
7700;DHT22;3892;47.794;19.126;2022-09-17T08:27:09;20.80;50.60
7700;DHT22;3892;47.794;19.126;2022-09-17T08:29:36;20.80;50.60
7700;DHT22;3892;47.794;19.126;2022-09-17T08:32:04;20.80;50.70
7700;DHT22;3892;47.794;19.126;2022-09-17T08:34:31;20.80;50.60
7700;DHT22;3892;47.794;19.126;2022-09-17T08:36:58;20.70;50.40
7700;DHT22;3892;47.794;19.126;2022-09-17T08:39:25;20.70;50.70
7700;DHT22;3892;47.794;19.126;2022-09-17T08:41:57;20.80;51.00
7700;DHT22;3892;47.794;19.126;2022-09-17T08:44:32;20.80;51.20
7700;DHT22;3892;47.794;19.126;2022-09-17T08:47:07;20.70;51.00
7700;DHT22;3892;47.794;19.126;2022-09-17T08:49:38;20.70;51.10
7700;DHT22;3892;47.794;19.126;2022-09-17T08:52:36;20.70;50.80
7700;DHT22;3892;47.794;19.126;2022-09-17T08:55:15;20.70;51.00
7700;DHT22;3892;47.794;19.126;2022-09-17T08:57:50;20.70;50.90
7700;DHT22;3892;47.794;19.126;2022-09-17T09:00:19;20.60;51.00
7700;DHT22;3892;47.794;19.126;2022-09-17T09:03:03;20.70;51.40
7700;DHT22;3892;47.794;19.126;2022-09-17T09:05:40;20.70;51.30
7700;DHT22;3892;47.794;19.126;2022-09-17T09:08:13;20.70;50.90
7700;DHT22;3892;47.794;19.126;2022-09-17T09:10:46;20.60;51.00
7700;DHT22;3892;47.794;19.126;2022-09-17T09:13:17;20.60;51.10
7700;DHT22;3892;47.794;19.126;2022-09-17T09:15:50;20.60;51.20
7700;DHT22;3892;47.794;19.126;2022-09-17T09:18:20;20.60;51.30
7700;DHT22;3892;47.794;19.126;2022-09-17T09:20:49;20.60;51.10
7700;DHT22;3892;47.794;19.126;2022-09-17T09:23:20;20.50;51.00
7700;DHT22;3892;47.794;19.126;2022-09-17T09:25:59;20.40;51.70
7700;DHT22;3892;47.794;19.126;2022-09-17T09:28:37;20.40;51.40
7700;DHT22;3892;47.794;19.126;2022-09-17T09:31:22;20.30;51.60
7700;DHT22;3892;47.794;19.126;2022-09-17T09:33:54;20.30;51.50
7700;DHT22;3892;47.794;19.126;2022-09-17T09:36:22;20.20;51.40
7700;DHT22;3892;47.794;19.126;2022-09-17T09:38:56;20.20;51.70
7700;DHT22;3892;47.794;19.126;2022-09-17T09:41:30;20.20;51.60
7700;DHT22;3892;47.794;19.126;2022-09-17T09:44:00;20.20;51.60
7700;DHT22;3892;47.794;19.126;2022-09-17T09:46:43;20.20;51.60
7700;DHT22;3892;47.794;19.126;2022-09-17T09:49:23;20.30;51.40
7700;DHT22;3892;47.794;19.126;2022-09-17T09:52:09;20.40;49.30
7700;DHT22;3892;47.794;19.126;2022-09-17T09:54:48;20.40;51.30
7700;DHT22;3892;47.794;19.126;2022-09-17T09:57:32;20.40;51.10
7700;DHT22;3892;47.794;19.126;2022-09-17T10:00:22;20.40;51.60
7700;DHT22;3892;47.794;19.126;2022-09-17T10:02:54;20.50;51.70
7700;DHT22;3892;47.794;19.126;2022-09-17T10:05:24;20.50;51.30
7700;DHT22;3892;47.794;19.126;2022-09-17T10:07:51;20.50;51.20
7700;DHT22;3892;47.794;19.126;2022-09-17T10:10:18;20.60;52.10
7700;DHT22;3892;47.794;19.126;2022-09-17T10:12:45;20.60;51.10
7700;DHT22;3892;47.794;19.126;2022-09-17T10:15:26;20.60;51.10
7700;DHT22;3892;47.794;19.126;2022-09-17T10:18:11;20.70;51.20
7700;DHT22;3892;47.794;19.126;2022-09-17T10:20:59;20.70;51.00
7700;DHT22;3892;47.794;19.126;2022-09-17T10:23:31;20.70;50.50
7700;DHT22;3892;47.794;19.126;2022-09-17T10:25:59;20.70;45.90
7700;DHT22;3892;47.794;19.126;2022-09-17T10:28:45;20.90;43.70
7700;DHT22;3892;47.794;19.126;2022-09-17T10:31:14;20.90;42.90
7700;DHT22;3892;47.794;19.126;2022-09-17T10:33:51;21.10;43.10
7700;DHT22;3892;47.794;19.126;2022-09-17T10:36:35;21.10;43.00
7700;DHT22;3892;47.794;19.126;2022-09-17T10:39:19;21.00;42.10
7700;DHT22;3892;47.794;19.126;2022-09-17T10:41:53;20.90;41.60
7700;DHT22;3892;47.794;19.126;2022-09-17T10:44:24;21.00;41.80
7700;DHT22;3892;47.794;19.126;2022-09-17T10:46:51;20.90;41.30
7700;DHT22;3892;47.794;19.126;2022-09-17T10:49:29;21.00;41.60
7700;DHT22;3892;47.794;19.126;2022-09-17T10:52:10;21.00;41.10
7700;DHT22;3892;47.794;19.126;2022-09-17T10:54:54;20.90;40.70
7700;DHT22;3892;47.794;19.126;2022-09-17T10:57:35;20.90;40.80
7700;DHT22;3892;47.794;19.126;2022-09-17T11:00:10;20.90;40.70
7700;DHT22;3892;47.794;19.126;2022-09-17T11:06:04;20.90;40.00
7700;DHT22;3892;47.794;19.126;2022-09-17T11:08:37;20.80;39.90
7700;DHT22;3892;47.794;19.126;2022-09-17T11:11:09;20.80;39.90
7700;DHT22;3892;47.794;19.126;2022-09-17T11:13:43;20.80;40.10
7700;DHT22;3892;47.794;19.126;2022-09-17T11:16:21;20.80;39.70
7700;DHT22;3892;47.794;19.126;2022-09-17T11:19:00;20.80;39.30
7700;DHT22;3892;47.794;19.126;2022-09-17T11:21:41;20.80;39.60
7700;DHT22;3892;47.794;19.126;2022-09-17T11:27:30;20.70;39.20
7700;DHT22;3892;47.794;19.126;2022-09-17T11:30:06;20.70;39.20
7700;DHT22;3892;47.794;19.126;2022-09-17T11:35:25;20.60;39.30
7700;DHT22;3892;47.794;19.126;2022-09-17T11:37:57;20.60;39.80
7700;DHT22;3892;47.794;19.126;2022-09-17T11:40:34;20.60;39.80
7700;DHT22;3892;47.794;19.126;2022-09-17T11:43:13;20.70;40.00
7700;DHT22;3892;47.794;19.126;2022-09-17T11:45:47;20.60;39.70
7700;DHT22;3892;47.794;19.126;2022-09-17T11:48:19;20.70;39.40
7700;DHT22;3892;47.794;19.126;2022-09-17T11:50:51;20.60;39.80
7700;DHT22;3892;47.794;19.126;2022-09-17T11:53:21;20.70;39.40
7700;DHT22;3892;47.794;19.126;2022-09-17T11:55:51;20.70;39.80
7700;DHT22;3892;47.794;19.126;2022-09-17T11:58:25;20.80;39.80
7700;DHT22;3892;47.794;19.126;2022-09-17T12:01:02;20.80;40.00
7700;DHT22;3892;47.794;19.126;2022-09-17T12:03:35;20.90;40.20
7700;DHT22;3892;47.794;19.126;2022-09-17T12:06:08;20.90;39.90
7700;DHT22;3892;47.794;19.126;2022-09-17T12:08:41;21.00;39.80
7700;DHT22;3892;47.794;19.126;2022-09-17T12:11:14;21.00;39.50
7700;DHT22;3892;47.794;19.126;2022-09-17T12:13:47;21.00;39.90
7700;DHT22;3892;47.794;19.126;2022-09-17T12:16:20;21.10;40.00
7700;DHT22;3892;47.794;19.126;2022-09-17T12:18:55;21.10;39.70
7700;DHT22;3892;47.794;19.126;2022-09-17T12:21:28;21.10;40.20
7700;DHT22;3892;47.794;19.126;2022-09-17T12:23:58;21.20;39.60
7700;DHT22;3892;47.794;19.126;2022-09-17T12:26:35;21.10;38.90
7700;DHT22;3892;47.794;19.126;2022-09-17T12:29:27;21.10;39.10
7700;DHT22;3892;47.794;19.126;2022-09-17T12:32:01;21.00;38.60
7700;DHT22;3892;47.794;19.126;2022-09-17T12:34:41;21.10;39.10
7700;DHT22;3892;47.794;19.126;2022-09-17T12:37:19;21.20;39.10
7700;DHT22;3892;47.794;19.126;2022-09-17T12:40:08;21.20;38.90
7700;DHT22;3892;47.794;19.126;2022-09-17T12:42:51;21.20;38.90
7700;DHT22;3892;47.794;19.126;2022-09-17T12:45:31;21.20;39.10
7700;DHT22;3892;47.794;19.126;2022-09-17T12:51:17;21.20;39.70
7700;DHT22;3892;47.794;19.126;2022-09-17T12:53:54;21.20;39.70
7700;DHT22;3892;47.794;19.126;2022-09-17T12:56:33;21.20;39.30
7700;DHT22;3892;47.794;19.126;2022-09-17T12:59:07;21.20;39.30
7700;DHT22;3892;47.794;19.126;2022-09-17T13:01:43;21.20;39.30
7700;DHT22;3892;47.794;19.126;2022-09-17T13:04:39;21.10;39.00
7700;DHT22;3892;47.794;19.126;2022-09-17T13:10:39;21.10;40.00
7700;DHT22;3892;47.794;19.126;2022-09-17T13:13:18;21.00;39.00
7700;DHT22;3892;47.794;19.126;2022-09-17T13:15:56;20.90;39.10
7700;DHT22;3892;47.794;19.126;2022-09-17T13:18:32;20.80;39.20
7700;DHT22;3892;47.794;19.126;2022-09-17T13:21:05;20.90;39.70
7700;DHT22;3892;47.794;19.126;2022-09-17T13:23:37;20.90;40.10
7700;DHT22;3892;47.794;19.126;2022-09-17T13:26:05;20.90;40.00
7700;DHT22;3892;47.794;19.126;2022-09-17T13:28:38;20.80;39.50
7700;DHT22;3892;47.794;19.126;2022-09-17T13:31:06;20.90;39.80
7700;DHT22;3892;47.794;19.126;2022-09-17T13:33:58;20.80;39.90
7700;DHT22;3892;47.794;19.126;2022-09-17T13:36:40;20.80;39.90
7700;DHT22;3892;47.794;19.126;2022-09-17T13:39:09;20.80;39.90
7700;DHT22;3892;47.794;19.126;2022-09-17T13:41:38;20.80;39.80
7700;DHT22;3892;47.794;19.126;2022-09-17T13:44:07;20.80;39.90
7700;DHT22;3892;47.794;19.126;2022-09-17T13:46:35;20.80;39.90
7700;DHT22;3892;47.794;19.126;2022-09-17T13:49:10;20.80;39.90
7700;DHT22;3892;47.794;19.126;2022-09-17T13:51:56;20.80;40.00
7700;DHT22;3892;47.794;19.126;2022-09-17T13:54:35;20.80;40.30
7700;DHT22;3892;47.794;19.126;2022-09-17T13:57:09;20.90;40.30
7700;DHT22;3892;47.794;19.126;2022-09-17T13:59:37;20.90;40.20
7700;DHT22;3892;47.794;19.126;2022-09-17T14:02:29;20.90;40.40
7700;DHT22;3892;47.794;19.126;2022-09-17T14:05:20;20.90;40.20
7700;DHT22;3892;47.794;19.126;2022-09-17T14:07:49;20.80;40.00
7700;DHT22;3892;47.794;19.126;2022-09-17T14:10:41;20.80;40.20
7700;DHT22;3892;47.794;19.126;2022-09-17T14:16:40;20.80;40.50
7700;DHT22;3892;47.794;19.126;2022-09-17T14:19:31;20.70;40.30
7700;DHT22;3892;47.794;19.126;2022-09-17T14:22:11;20.70;40.20
7700;DHT22;3892;47.794;19.126;2022-09-17T14:24:45;20.70;40.20
7700;DHT22;3892;47.794;19.126;2022-09-17T14:27:17;20.60;39.90
7700;DHT22;3892;47.794;19.126;2022-09-17T14:30:05;20.60;40.30
7700;DHT22;3892;47.794;19.126;2022-09-17T14:32:41;20.60;40.70
7700;DHT22;3892;47.794;19.126;2022-09-17T14:35:15;20.60;40.20
7700;DHT22;3892;47.794;19.126;2022-09-17T14:37:55;20.60;40.10
7700;DHT22;3892;47.794;19.126;2022-09-17T14:40:24;20.60;40.20
7700;DHT22;3892;47.794;19.126;2022-09-17T14:42:54;20.60;40.20
7700;DHT22;3892;47.794;19.126;2022-09-17T14:45:26;20.50;39.90
7700;DHT22;3892;47.794;19.126;2022-09-17T14:48:28;20.60;40.10
7700;DHT22;3892;47.794;19.126;2022-09-17T14:51:26;20.50;39.90
7700;DHT22;3892;47.794;19.126;2022-09-17T14:54:14;20.50;39.90
7700;DHT22;3892;47.794;19.126;2022-09-17T14:59:42;20.40;39.80
7700;DHT22;3892;47.794;19.126;2022-09-17T15:02:28;20.40;40.10
7700;DHT22;3892;47.794;19.126;2022-09-17T15:04:57;20.30;39.80
7700;DHT22;3892;47.794;19.126;2022-09-17T15:07:25;20.30;39.90
7700;DHT22;3892;47.794;19.126;2022-09-17T15:09:53;20.40;40.10
7700;DHT22;3892;47.794;19.126;2022-09-17T15:12:25;20.40;39.70
7700;DHT22;3892;47.794;19.126;2022-09-17T15:14:54;20.40;39.90
7700;DHT22;3892;47.794;19.126;2022-09-17T15:17:22;20.40;39.90
7700;DHT22;3892;47.794;19.126;2022-09-17T15:19:51;20.50;40.00
7700;DHT22;3892;47.794;19.126;2022-09-17T15:22:23;20.40;39.50
7700;DHT22;3892;47.794;19.126;2022-09-17T15:24:54;20.40;39.60
7700;DHT22;3892;47.794;19.126;2022-09-17T15:27:25;20.30;39.30
7700;DHT22;3892;47.794;19.126;2022-09-17T15:29:56;20.30;39.50
7700;DHT22;3892;47.794;19.126;2022-09-17T15:32:25;20.30;39.40
7700;DHT22;3892;47.794;19.126;2022-09-17T15:35:21;20.30;39.60
7700;DHT22;3892;47.794;19.126;2022-09-17T15:37:49;20.30;39.60
7700;DHT22;3892;47.794;19.126;2022-09-17T15:40:26;20.30;39.50
7700;DHT22;3892;47.794;19.126;2022-09-17T15:43:00;20.30;39.60
7700;DHT22;3892;47.794;19.126;2022-09-17T15:45:28;20.30;40.30
7700;DHT22;3892;47.794;19.126;2022-09-17T15:47:57;20.30;39.90
7700;DHT22;3892;47.794;19.126;2022-09-17T15:50:25;20.30;39.80
7700;DHT22;3892;47.794;19.126;2022-09-17T15:53:10;20.20;39.70
7700;DHT22;3892;47.794;19.126;2022-09-17T15:55:40;20.30;40.00
7700;DHT22;3892;47.794;19.126;2022-09-17T15:58:25;20.20;40.00
7700;DHT22;3892;47.794;19.126;2022-09-17T16:04:18;20.20;39.90
7700;DHT22;3892;47.794;19.126;2022-09-17T16:06:51;20.20;39.80
7700;DHT22;3892;47.794;19.126;2022-09-17T16:09:38;20.20;39.80
7700;DHT22;3892;47.794;19.126;2022-09-17T16:12:10;20.20;39.80
7700;DHT22;3892;47.794;19.126;2022-09-17T16:14:37;20.20;40.00
7700;DHT22;3892;47.794;19.126;2022-09-17T16:17:26;20.20;39.80
7700;DHT22;3892;47.794;19.126;2022-09-17T16:19:54;20.20;39.90
7700;DHT22;3892;47.794;19.126;2022-09-17T16:22:21;20.20;40.00
7700;DHT22;3892;47.794;19.126;2022-09-17T16:24:48;20.20;40.60
7700;DHT22;3892;47.794;19.126;2022-09-17T16:27:19;20.20;39.90
7700;DHT22;3892;47.794;19.126;2022-09-17T16:29:49;20.30;40.00
7700;DHT22;3892;47.794;19.126;2022-09-17T16:32:16;20.20;40.50
7700;DHT22;3892;47.794;19.126;2022-09-17T16:34:43;20.30;40.20
7700;DHT22;3892;47.794;19.126;2022-09-17T16:37:10;20.20;40.10
7700;DHT22;3892;47.794;19.126;2022-09-17T16:39:37;20.20;40.00
7700;DHT22;3892;47.794;19.126;2022-09-17T16:42:04;20.20;40.10
7700;DHT22;3892;47.794;19.126;2022-09-17T16:44:32;20.20;40.10
7700;DHT22;3892;47.794;19.126;2022-09-17T16:46:59;20.20;40.00
7700;DHT22;3892;47.794;19.126;2022-09-17T16:49:26;20.20;40.30